createdAt,value
2023-09-09T00:02:23.385Z,34.80
2023-09-09T00:04:53.922Z,40.17
2023-09-09T00:07:21.733Z,40.50
2023-09-09T00:09:50.593Z,42.53
2023-09-09T00:12:18.356Z,40.72
2023-09-09T00:14:46.131Z,38.38
2023-09-09T00:17:13.779Z,40.90
2023-09-09T00:19:41.469Z,43.23
2023-09-09T00:22:09.107Z,43.10
2023-09-09T00:24:37.361Z,48.05
2023-09-09T00:27:05.296Z,41.20
2023-09-09T00:29:34.712Z,42.15
2023-09-09T00:32:02.433Z,48.90
2023-09-09T00:34:30.278Z,46.95
2023-09-09T00:36:57.995Z,44.83
2023-09-09T00:39:25.733Z,44.90
2023-09-09T00:41:53.428Z,48.65
2023-09-09T00:44:21.117Z,48.13
2023-09-09T00:46:49.071Z,50.00
2023-09-09T00:49:16.936Z,46.92
2023-09-09T00:51:45.672Z,43.70
2023-09-09T00:54:13.454Z,46.40
2023-09-09T00:56:42.452Z,48.33
2023-09-09T00:59:13.407Z,49.17
2023-09-09T01:01:41.218Z,48.05
2023-09-09T01:04:09.451Z,45.78
2023-09-09T01:06:39.870Z,42.03
2023-09-09T01:09:09.662Z,42.28
2023-09-09T01:11:37.514Z,48.10
2023-09-09T01:14:05.457Z,48.95
2023-09-09T01:16:33.731Z,43.80
2023-09-09T01:21:32.850Z,47.60
2023-09-09T01:24:00.664Z,52.80
2023-09-09T01:26:28.556Z,47.45
2023-09-09T01:28:56.512Z,50.10
2023-09-09T01:31:24.257Z,56.30
2023-09-09T01:33:56.636Z,52.63
2023-09-09T01:36:24.444Z,46.53
2023-09-09T01:38:52.277Z,46.15
2023-09-09T01:41:20.047Z,51.23
2023-09-09T01:43:48.070Z,45.00
2023-09-09T01:46:15.923Z,45.88
2023-09-09T01:48:43.646Z,54.20
2023-09-09T01:51:11.302Z,39.13
2023-09-09T01:53:39.937Z,37.85
2023-09-09T01:56:07.884Z,45.75
2023-09-09T01:58:35.748Z,48.83
2023-09-09T02:01:03.425Z,41.57
2023-09-09T02:03:32.004Z,49.33
2023-09-09T02:06:00.242Z,47.00
2023-09-09T02:08:27.915Z,54.70
2023-09-09T02:10:55.606Z,46.23
2023-09-09T02:13:23.385Z,47.33
2023-09-09T02:15:51.146Z,55.22
2023-09-09T02:18:21.467Z,50.93
2023-09-09T02:20:58.763Z,52.45
2023-09-09T02:23:26.674Z,44.72
2023-09-09T02:25:54.403Z,53.00
2023-09-09T02:28:22.146Z,50.93
2023-09-09T02:30:50.068Z,52.83
2023-09-09T02:33:18.128Z,49.80
2023-09-09T02:35:46.251Z,53.45
2023-09-09T02:38:13.965Z,46.72
2023-09-09T02:40:41.647Z,52.17
2023-09-09T02:43:09.405Z,53.47
2023-09-09T02:45:37.069Z,53.57
2023-09-09T02:48:05.752Z,45.90
2023-09-09T02:53:01.801Z,62.65
2023-09-09T02:55:29.784Z,47.15
2023-09-09T02:57:58.268Z,50.17
2023-09-09T03:00:26.814Z,49.25
2023-09-09T03:02:54.737Z,51.88
2023-09-09T03:05:22.585Z,47.20
2023-09-09T03:07:50.332Z,49.65
2023-09-09T03:10:18.196Z,56.13
2023-09-09T03:12:45.878Z,55.27
2023-09-09T03:15:13.580Z,50.72
2023-09-09T03:17:41.315Z,62.10
2023-09-09T03:20:10.151Z,62.22
2023-09-09T03:25:09.092Z,64.85
2023-09-09T03:27:36.859Z,62.05
2023-09-09T03:30:05.316Z,50.63
2023-09-09T03:32:33.201Z,56.30
2023-09-09T03:35:01.075Z,55.42
2023-09-09T03:37:28.733Z,58.63
2023-09-09T03:39:56.632Z,57.17
2023-09-09T03:42:24.408Z,47.93
2023-09-09T03:44:54.186Z,54.90
2023-09-09T03:47:23.527Z,66.00
2023-09-09T03:49:54.598Z,64.30
2023-09-09T03:52:22.683Z,48.80
2023-09-09T03:54:50.511Z,50.17
2023-09-09T03:57:18.521Z,65.30
2023-09-09T03:59:48.310Z,71.57
2023-09-09T04:02:16.015Z,64.45
2023-09-09T04:04:44.099Z,63.22
2023-09-09T04:07:11.847Z,78.05
2023-09-09T04:09:42.178Z,82.83
2023-09-09T04:12:11.292Z,80.85
2023-09-09T04:14:43.203Z,72.35
2023-09-09T04:17:11.424Z,94.60
2023-09-09T04:19:39.138Z,90.57
2023-09-09T04:22:06.910Z,80.18
2023-09-09T04:24:35.427Z,86.88
2023-09-09T04:27:03.720Z,81.40
2023-09-09T04:29:31.679Z,55.83
2023-09-09T04:32:00.061Z,55.53
2023-09-09T04:34:27.702Z,54.40
2023-09-09T04:36:56.119Z,56.47
2023-09-09T04:39:23.942Z,69.45
2023-09-09T04:41:51.719Z,60.03
2023-09-09T04:44:22.132Z,55.33
2023-09-09T04:46:50.379Z,58.05
2023-09-09T04:49:18.595Z,65.00
2023-09-09T04:51:50.248Z,74.03
2023-09-09T04:54:19.406Z,68.25
2023-09-09T04:56:48.299Z,73.28
2023-09-09T04:59:16.673Z,70.13
2023-09-09T05:01:44.389Z,81.17
2023-09-09T05:06:40.609Z,65.43
2023-09-09T05:09:08.846Z,69.00
2023-09-09T05:11:37.734Z,63.65
2023-09-09T05:14:08.160Z,62.75
2023-09-09T05:16:38.382Z,74.90
2023-09-09T05:19:07.596Z,81.28
2023-09-09T05:21:35.257Z,73.53
2023-09-09T05:24:03.875Z,86.10
2023-09-09T05:29:02.416Z,60.70
2023-09-09T05:31:30.167Z,72.05
2023-09-09T05:33:58.010Z,61.07
2023-09-09T05:39:00.617Z,71.05
2023-09-09T05:41:30.484Z,78.22
2023-09-09T05:43:59.150Z,344.00
2023-09-09T05:46:27.083Z,247.63
2023-09-09T05:48:55.028Z,45.72
2023-09-09T05:51:22.780Z,78.72
2023-09-09T05:53:52.790Z,52.97
2023-09-09T05:56:20.842Z,65.15
2023-09-09T05:58:48.804Z,74.22
2023-09-09T06:01:16.873Z,75.10
2023-09-09T06:03:44.966Z,90.77
2023-09-09T06:06:12.940Z,70.53
2023-09-09T06:08:40.740Z,92.65
2023-09-09T06:11:08.685Z,82.70
2023-09-09T06:13:37.058Z,84.63
2023-09-09T06:18:32.759Z,74.60
2023-09-09T06:21:01.097Z,82.97
2023-09-09T06:23:29.259Z,87.40
2023-09-09T06:25:58.140Z,81.97
2023-09-09T06:28:34.951Z,80.23
2023-09-09T06:31:03.302Z,77.93
2023-09-09T06:33:31.209Z,70.93
2023-09-09T06:35:59.074Z,69.03
2023-09-09T06:38:30.140Z,68.35
2023-09-09T06:40:57.736Z,70.28
2023-09-09T06:43:25.534Z,72.37
2023-09-09T06:45:53.401Z,66.27
2023-09-09T06:48:22.325Z,67.43
2023-09-09T06:50:50.555Z,66.38
2023-09-09T06:53:21.518Z,61.47
2023-09-09T06:55:50.159Z,61.35
2023-09-09T06:58:17.893Z,61.13
2023-09-09T07:00:52.791Z,55.80
2023-09-09T07:03:21.439Z,57.30
2023-09-09T07:05:50.583Z,61.28
2023-09-09T07:08:20.430Z,59.42
2023-09-09T07:10:52.557Z,54.58
2023-09-09T07:13:26.585Z,56.78
2023-09-09T07:15:55.185Z,52.53
2023-09-09T07:18:23.828Z,47.75
2023-09-09T07:23:22.616Z,50.00
2023-09-09T07:25:50.374Z,53.30
2023-09-09T07:28:18.087Z,52.65
2023-09-09T07:30:45.913Z,49.13
2023-09-09T07:33:13.582Z,49.95
2023-09-09T07:35:41.402Z,54.22
2023-09-09T07:38:09.087Z,56.57
2023-09-09T07:40:36.864Z,54.65
2023-09-09T07:43:04.691Z,53.35
2023-09-09T07:45:32.292Z,52.42
2023-09-09T07:48:00.076Z,50.90
2023-09-09T07:50:27.844Z,47.70
2023-09-09T07:52:55.656Z,48.80
2023-09-09T07:55:23.257Z,48.13
2023-09-09T07:57:51.158Z,47.20
2023-09-09T08:00:18.905Z,45.63
2023-09-09T08:02:46.640Z,44.25
2023-09-09T08:05:14.617Z,44.92
2023-09-09T08:07:43.784Z,47.03
2023-09-09T08:10:13.498Z,45.47
2023-09-09T08:12:41.216Z,44.33
2023-09-09T08:15:11.324Z,42.97
2023-09-09T08:17:39.694Z,44.45
2023-09-09T08:20:09.173Z,42.85
2023-09-09T08:22:37.402Z,40.65
2023-09-09T08:25:06.097Z,39.78
2023-09-09T08:27:33.825Z,41.00
2023-09-09T08:30:01.475Z,39.10
2023-09-09T08:32:29.074Z,36.40
2023-09-09T08:34:56.859Z,35.08
2023-09-09T08:37:24.579Z,35.58
2023-09-09T08:39:56.418Z,34.40
2023-09-09T08:42:49.133Z,31.90
2023-09-09T08:45:47.500Z,28.40
2023-09-09T08:48:19.905Z,27.67
2023-09-09T08:50:51.638Z,30.08
2023-09-09T08:53:21.001Z,27.70
2023-09-09T08:55:50.035Z,24.83
2023-09-09T08:58:19.324Z,23.88
2023-09-09T09:00:49.400Z,27.70
2023-09-09T09:05:47.472Z,22.67
2023-09-09T09:08:15.165Z,19.67
2023-09-09T09:10:43.270Z,20.85
2023-09-09T09:15:39.824Z,17.85
2023-09-09T09:18:09.525Z,19.58
2023-09-09T09:20:39.768Z,20.15
2023-09-09T09:23:11.455Z,14.50
2023-09-09T09:25:45.846Z,16.70
2023-09-09T09:28:14.742Z,13.63
2023-09-09T09:30:43.060Z,13.60
2023-09-09T09:33:10.877Z,15.95
2023-09-09T09:35:38.723Z,16.00
2023-09-09T09:38:07.743Z,15.73
2023-09-09T09:40:36.458Z,19.25
2023-09-09T09:43:04.387Z,16.50
2023-09-09T09:45:32.498Z,16.73
2023-09-09T09:53:05.065Z,21.77
2023-09-09T09:55:34.693Z,20.05
2023-09-09T09:58:04.800Z,23.27
2023-09-09T10:00:32.867Z,16.92
2023-09-09T10:05:30.555Z,18.38
2023-09-09T10:08:15.043Z,21.77
2023-09-09T10:10:53.096Z,19.13
2023-09-09T10:13:52.771Z,16.27
2023-09-09T10:19:54.513Z,14.60
2023-09-09T10:22:23.141Z,19.40
2023-09-09T10:24:53.567Z,18.75
2023-09-09T10:27:21.525Z,19.08
2023-09-09T10:29:51.848Z,16.38
2023-09-09T10:32:20.949Z,14.95
2023-09-09T10:34:53.205Z,12.82
2023-09-09T10:37:24.631Z,16.25
2023-09-09T10:39:53.114Z,17.52
2023-09-09T10:42:21.113Z,16.52
2023-09-09T10:47:20.494Z,17.75
2023-09-09T10:49:48.305Z,16.52
2023-09-09T10:52:32.999Z,18.02
2023-09-09T10:55:29.169Z,12.25
2023-09-09T10:57:58.359Z,12.85
2023-09-09T11:00:41.268Z,15.10
2023-09-09T11:03:14.550Z,14.65
2023-09-09T11:06:01.328Z,15.35
2023-09-09T11:08:30.867Z,14.20
2023-09-09T11:11:18.428Z,14.95
2023-09-09T11:14:00.473Z,16.52
2023-09-09T11:16:29.415Z,12.73
2023-09-09T11:19:01.621Z,8.45
2023-09-09T11:21:31.351Z,14.70
2023-09-09T11:23:59.592Z,26.05
2023-09-09T11:26:28.856Z,17.88
2023-09-09T11:28:56.849Z,18.80
2023-09-09T11:33:56.817Z,14.95
2023-09-09T11:36:24.612Z,14.05
2023-09-09T11:38:52.334Z,28.23
2023-09-09T11:41:21.663Z,19.30
2023-09-09T11:43:59.194Z,14.00
2023-09-09T11:46:45.940Z,14.48
2023-09-09T11:49:14.640Z,16.43
2023-09-09T11:51:42.362Z,13.80
2023-09-09T11:54:12.999Z,14.05
2023-09-09T11:56:41.678Z,16.90
2023-09-09T11:59:10.417Z,11.32
2023-09-09T12:01:42.548Z,16.00
2023-09-09T12:04:11.698Z,12.30
2023-09-09T12:06:42.326Z,11.98
2023-09-09T12:09:10.723Z,9.88
2023-09-09T12:11:41.314Z,7.45
2023-09-09T12:14:10.771Z,13.98
2023-09-09T12:16:40.594Z,8.55
2023-09-09T12:19:17.594Z,11.77
2023-09-09T12:21:50.511Z,8.57
2023-09-09T12:24:18.326Z,7.50
2023-09-09T12:26:53.777Z,8.48
2023-09-09T12:29:21.911Z,10.27
2023-09-09T12:31:54.102Z,9.50
2023-09-09T12:34:23.769Z,8.75
2023-09-09T12:36:56.225Z,7.03
2023-09-09T12:39:26.163Z,9.80
2023-09-09T12:42:04.901Z,11.02
2023-09-09T12:44:34.177Z,9.85
2023-09-09T12:47:06.382Z,9.25
2023-09-09T12:49:34.507Z,7.07
2023-09-09T12:54:29.926Z,7.95
2023-09-09T12:59:25.072Z,8.90
2023-09-09T13:01:54.876Z,10.77
2023-09-09T13:04:25.827Z,7.65
2023-09-09T13:06:54.016Z,7.63
2023-09-09T13:09:21.787Z,13.88
2023-09-09T13:14:25.277Z,8.98
2023-09-09T13:16:55.559Z,9.65
2023-09-09T13:19:25.779Z,8.93
2023-09-09T13:21:55.728Z,8.75
2023-09-09T13:24:23.447Z,8.30
2023-09-09T13:26:51.005Z,5.65
2023-09-09T13:29:19.816Z,5.25
2023-09-09T13:31:56.588Z,10.02
2023-09-09T13:34:24.323Z,9.52
2023-09-09T13:36:51.987Z,14.20
2023-09-09T13:39:19.621Z,11.50
2023-09-09T13:41:47.425Z,7.35
2023-09-09T13:44:15.212Z,7.18
2023-09-09T13:46:43.025Z,9.45
2023-09-09T13:51:38.245Z,8.90
2023-09-09T13:54:06.122Z,6.03
2023-09-09T14:01:28.977Z,9.07
2023-09-09T14:03:56.923Z,10.45
2023-09-09T14:06:26.296Z,7.60
2023-09-09T14:08:54.591Z,8.85
2023-09-09T14:11:22.487Z,10.65
2023-09-09T14:13:50.215Z,8.48
2023-09-09T14:16:17.982Z,12.43
2023-09-09T14:18:45.734Z,8.60
2023-09-09T14:21:13.489Z,11.13
2023-09-09T14:23:42.137Z,6.88
2023-09-09T14:26:09.812Z,10.93
2023-09-09T14:28:37.664Z,13.32
2023-09-09T14:31:05.506Z,8.05
2023-09-09T14:33:33.269Z,14.70
2023-09-09T14:38:28.492Z,7.72
2023-09-09T14:40:56.384Z,7.95
2023-09-09T14:45:51.594Z,21.30
2023-09-09T14:48:19.269Z,13.65
2023-09-09T14:50:47.095Z,7.45
2023-09-09T14:53:14.891Z,9.27
2023-09-09T14:55:42.667Z,13.73
2023-09-09T14:58:10.313Z,9.35
2023-09-09T15:00:38.116Z,11.93
2023-09-09T15:03:05.929Z,8.57
2023-09-09T15:05:33.592Z,12.43
2023-09-09T15:08:01.284Z,7.93
2023-09-09T15:10:28.920Z,13.90
2023-09-09T15:12:56.673Z,8.82
2023-09-09T15:17:51.818Z,10.55
2023-09-09T15:20:19.562Z,7.88
2023-09-09T15:22:47.247Z,9.57
2023-09-09T15:25:14.920Z,11.75
2023-09-09T15:27:42.594Z,10.38
2023-09-09T15:30:11.404Z,10.18
2023-09-09T15:32:39.190Z,11.63
2023-09-09T15:35:07.224Z,10.15
2023-09-09T15:40:02.330Z,11.30
2023-09-09T15:42:30.067Z,10.18
2023-09-09T15:44:57.708Z,10.43
2023-09-09T15:47:25.465Z,14.57
2023-09-09T15:49:53.135Z,13.13
2023-09-09T15:52:20.818Z,9.52
2023-09-09T15:54:48.578Z,8.88
2023-09-09T15:57:16.162Z,15.32
2023-09-09T15:59:43.867Z,13.85
2023-09-09T16:02:11.748Z,14.23
2023-09-09T16:04:39.673Z,12.63
2023-09-09T16:07:08.897Z,12.93
2023-09-09T16:09:43.340Z,14.20
2023-09-09T16:12:11.868Z,11.98
2023-09-09T16:14:39.471Z,11.65
2023-09-09T16:17:07.979Z,12.50
2023-09-09T16:19:38.622Z,14.70
2023-09-09T16:22:06.246Z,13.85
2023-09-09T16:24:33.947Z,21.40
2023-09-09T16:27:01.788Z,14.55
2023-09-09T16:29:29.506Z,12.68
2023-09-09T16:31:57.263Z,13.70
2023-09-09T16:34:25.138Z,11.80
2023-09-09T16:36:54.095Z,12.13
2023-09-09T16:39:23.769Z,14.50
2023-09-09T16:41:51.441Z,14.80
2023-09-09T16:44:19.059Z,10.20
2023-09-09T16:46:46.825Z,11.32
2023-09-09T16:49:15.134Z,9.45
2023-09-09T16:51:43.184Z,13.85
2023-09-09T16:56:38.322Z,15.80
2023-09-09T16:59:07.147Z,12.77
2023-09-09T17:01:37.184Z,13.15
2023-09-09T17:04:05.522Z,13.00
2023-09-09T17:06:33.210Z,14.38
2023-09-09T17:09:00.920Z,13.48
2023-09-09T17:11:28.884Z,16.90
2023-09-09T17:13:57.523Z,16.98
2023-09-09T17:16:25.345Z,12.10
2023-09-09T17:18:55.669Z,14.55
2023-09-09T17:21:23.255Z,13.05
2023-09-09T17:23:50.807Z,13.18
2023-09-09T17:26:18.389Z,17.83
2023-09-09T17:28:46.073Z,13.90
2023-09-09T17:31:13.774Z,13.73
2023-09-09T17:33:43.045Z,9.55
2023-09-09T17:36:10.752Z,20.33
2023-09-09T17:38:40.431Z,13.95
2023-09-09T17:41:08.465Z,13.93
2023-09-09T17:43:36.266Z,15.20
2023-09-09T17:46:05.328Z,21.15
2023-09-09T17:48:33.008Z,23.38
2023-09-09T17:51:00.701Z,12.43
2023-09-09T17:53:28.342Z,20.00
2023-09-09T17:55:57.288Z,14.30
2023-09-09T17:58:25.032Z,19.25
2023-09-09T18:00:55.160Z,18.33
2023-09-09T18:03:24.942Z,14.02
2023-09-09T18:05:52.766Z,15.05
2023-09-09T18:08:20.381Z,16.08
2023-09-09T18:10:48.122Z,20.10
2023-09-09T18:13:15.874Z,14.32
2023-09-09T18:15:43.585Z,18.85
2023-09-09T18:18:11.373Z,17.92
2023-09-09T18:20:39.045Z,12.88
2023-09-09T18:23:06.652Z,14.43
2023-09-09T18:25:34.361Z,14.93
2023-09-09T18:28:01.990Z,16.95
2023-09-09T18:30:29.693Z,20.57
2023-09-09T18:32:57.312Z,16.75
2023-09-09T18:35:25.120Z,16.15
2023-09-09T18:37:52.855Z,16.42
2023-09-09T18:40:20.493Z,17.35
2023-09-09T18:42:49.151Z,18.40
2023-09-09T18:45:17.191Z,13.63
2023-09-09T18:47:44.846Z,18.95
2023-09-09T18:50:13.399Z,16.60
2023-09-09T18:52:41.004Z,19.90
2023-09-09T18:55:09.169Z,16.95
2023-09-09T18:57:36.822Z,23.38
2023-09-09T19:00:06.284Z,13.03
2023-09-09T19:02:34.322Z,14.18
2023-09-09T19:05:02.275Z,16.95
2023-09-09T19:07:35.230Z,13.15
2023-09-09T19:10:03.567Z,14.43
2023-09-09T19:14:59.343Z,16.30
2023-09-09T19:17:28.677Z,13.60
2023-09-09T19:19:57.384Z,21.80
2023-09-09T19:22:26.186Z,19.83
2023-09-09T19:24:55.636Z,16.75
2023-09-09T19:27:24.165Z,18.65
2023-09-09T19:32:19.851Z,13.57
2023-09-09T19:34:48.694Z,14.18
2023-09-09T19:37:16.509Z,17.63
2023-09-09T19:39:44.211Z,19.73
2023-09-09T19:42:11.873Z,16.57
2023-09-09T19:44:39.519Z,17.27
2023-09-09T19:47:07.206Z,13.53
2023-09-09T19:49:35.709Z,13.57
2023-09-09T19:52:03.460Z,16.00
2023-09-09T19:54:31.115Z,16.70
2023-09-09T19:56:58.770Z,13.40
2023-09-09T19:59:26.883Z,11.80
2023-09-09T20:01:54.562Z,13.50
2023-09-09T20:04:22.831Z,12.43
2023-09-09T20:06:50.458Z,14.63
2023-09-09T20:09:18.067Z,10.63
2023-09-09T20:11:45.768Z,15.37
2023-09-09T20:14:14.425Z,15.77
2023-09-09T20:16:42.091Z,8.90
2023-09-09T20:19:10.536Z,11.13
2023-09-09T20:24:05.837Z,13.30
2023-09-09T20:26:33.759Z,9.80
2023-09-09T20:29:02.763Z,9.50
2023-09-09T20:31:30.473Z,11.10
2023-09-09T20:33:58.243Z,13.90
2023-09-09T20:36:25.904Z,10.00
2023-09-09T20:38:53.579Z,10.20
2023-09-09T20:41:21.205Z,9.53
2023-09-09T20:43:49.586Z,13.07
2023-09-09T20:46:19.131Z,11.30
2023-09-09T20:48:46.761Z,10.43
2023-09-09T20:51:14.412Z,17.50
2023-09-09T20:53:42.043Z,12.80
2023-09-09T20:56:13.657Z,16.48
2023-09-09T20:58:42.348Z,11.65
2023-09-09T21:01:10.376Z,14.13
2023-09-09T21:03:38.253Z,11.65
2023-09-09T21:06:06.109Z,10.70
2023-09-09T21:08:33.981Z,8.80
2023-09-09T21:11:01.691Z,15.27
2023-09-09T21:13:29.705Z,17.15
2023-09-09T21:15:59.371Z,12.90
2023-09-09T21:18:33.618Z,13.73
2023-09-09T21:21:03.737Z,10.43
2023-09-09T21:23:31.472Z,16.58
2023-09-09T21:26:00.076Z,11.67
2023-09-09T21:30:55.481Z,15.30
2023-09-09T21:33:23.363Z,17.30
2023-09-09T21:35:51.853Z,10.33
2023-09-09T21:38:19.514Z,10.60
2023-09-09T21:40:47.209Z,19.27
2023-09-09T21:43:17.082Z,14.77
2023-09-09T21:45:44.998Z,13.57
2023-09-09T21:48:12.614Z,16.70
2023-09-09T21:50:40.951Z,15.38
2023-09-09T21:53:08.699Z,19.23
2023-09-09T21:55:36.424Z,13.67
2023-09-09T21:58:04.395Z,20.73
2023-09-09T22:00:34.273Z,16.23
2023-09-09T22:03:02.117Z,15.23
2023-09-09T22:05:30.322Z,22.45
2023-09-09T22:08:00.699Z,13.02
2023-09-09T22:10:28.474Z,13.93
2023-09-09T22:12:56.154Z,18.38
2023-09-09T22:15:23.861Z,15.38
2023-09-09T22:17:51.616Z,16.97
2023-09-09T22:20:20.609Z,14.93
2023-09-09T22:22:50.973Z,25.08
2023-09-09T22:25:18.781Z,16.48
2023-09-09T22:27:46.514Z,13.90
2023-09-09T22:30:14.281Z,13.20
2023-09-09T22:32:42.039Z,14.77
2023-09-09T22:35:11.549Z,20.43
2023-09-09T22:37:40.516Z,15.25
2023-09-09T22:40:10.742Z,12.50
2023-09-09T22:42:38.671Z,16.13
2023-09-09T22:45:06.712Z,18.87
2023-09-09T22:47:34.562Z,18.15
2023-09-09T22:50:02.382Z,15.82
2023-09-09T22:52:30.119Z,21.50
2023-09-09T22:54:57.938Z,19.30
2023-09-09T22:57:25.649Z,23.35
2023-09-09T22:59:53.346Z,18.80
2023-09-09T23:02:21.127Z,14.07
2023-09-09T23:04:55.151Z,14.65
2023-09-09T23:07:22.896Z,13.52
2023-09-09T23:09:54.550Z,21.03
2023-09-09T23:12:23.410Z,19.08
2023-09-09T23:14:51.017Z,22.77
2023-09-09T23:17:18.778Z,19.63
2023-09-09T23:19:46.620Z,15.77
2023-09-09T23:22:14.322Z,18.77
2023-09-09T23:24:43.503Z,18.30
2023-09-09T23:27:11.179Z,19.63
2023-09-09T23:29:38.838Z,18.15
2023-09-09T23:32:07.161Z,18.07
2023-09-09T23:34:34.850Z,20.52
2023-09-09T23:37:02.514Z,20.10
2023-09-09T23:39:30.166Z,20.08
2023-09-09T23:41:57.821Z,19.17
2023-09-09T23:44:25.500Z,18.10
2023-09-09T23:46:53.388Z,22.53
2023-09-09T23:49:21.109Z,21.20
2023-09-09T23:51:48.778Z,21.77
2023-09-09T23:54:16.458Z,34.83
2023-09-09T23:56:44.097Z,14.43
2023-09-09T23:59:11.711Z,16.42
